sensor_id;sensor_type;location;lat;lon;timestamp;P1;durP1;ratioP1;P2;durP2;ratioP2
22837;SDS011;11585;51.450;-0.240;2023-08-08T00:01:08;4.10;;;1.70;;
22837;SDS011;11585;51.450;-0.240;2023-08-08T00:03:34;7.32;;;1.98;;
22837;SDS011;11585;51.450;-0.240;2023-08-08T00:09:21;3.13;;;1.77;;
22837;SDS011;11585;51.450;-0.240;2023-08-08T00:11:47;4.05;;;1.80;;
22837;SDS011;11585;51.450;-0.240;2023-08-08T00:14:13;6.18;;;2.28;;
22837;SDS011;11585;51.450;-0.240;2023-08-08T00:19:45;3.85;;;1.83;;
22837;SDS011;11585;51.450;-0.240;2023-08-08T00:22:10;4.50;;;1.85;;
22837;SDS011;11585;51.450;-0.240;2023-08-08T00:24:36;10.00;;;2.13;;
22837;SDS011;11585;51.450;-0.240;2023-08-08T00:30:23;7.07;;;1.77;;
22837;SDS011;11585;51.450;-0.240;2023-08-08T00:32:49;3.70;;;1.75;;
22837;SDS011;11585;51.450;-0.240;2023-08-08T00:38:37;4.05;;;1.60;;
22837;SDS011;11585;51.450;-0.240;2023-08-08T00:41:02;12.40;;;1.60;;
22837;SDS011;11585;51.450;-0.240;2023-08-08T00:43:29;4.20;;;1.70;;
22837;SDS011;11585;51.450;-0.240;2023-08-08T00:49:00;5.43;;;1.77;;
22837;SDS011;11585;51.450;-0.240;2023-08-08T00:51:26;5.43;;;1.65;;
22837;SDS011;11585;51.450;-0.240;2023-08-08T00:53:52;5.00;;;1.52;;
22837;SDS011;11585;51.450;-0.240;2023-08-08T00:56:20;2.97;;;1.67;;
22837;SDS011;11585;51.450;-0.240;2023-08-08T00:58:46;4.93;;;1.85;;
22837;SDS011;11585;51.450;-0.240;2023-08-08T01:01:14;5.57;;;1.90;;
22837;SDS011;11585;51.450;-0.240;2023-08-08T01:03:40;6.03;;;2.25;;
22837;SDS011;11585;51.450;-0.240;2023-08-08T01:12:20;7.78;;;1.95;;
22837;SDS011;11585;51.450;-0.240;2023-08-08T01:14:48;6.05;;;1.90;;
22837;SDS011;11585;51.450;-0.240;2023-08-08T01:20:35;5.28;;;1.98;;
22837;SDS011;11585;51.450;-0.240;2023-08-08T01:26:24;4.57;;;1.75;;
22837;SDS011;11585;51.450;-0.240;2023-08-08T01:28:54;4.90;;;2.03;;
22837;SDS011;11585;51.450;-0.240;2023-08-08T01:31:20;2.78;;;1.73;;
22837;SDS011;11585;51.450;-0.240;2023-08-08T01:33:46;8.43;;;1.70;;
22837;SDS011;11585;51.450;-0.240;2023-08-08T01:39:22;5.30;;;2.05;;
22837;SDS011;11585;51.450;-0.240;2023-08-08T01:41:55;5.07;;;1.90;;
22837;SDS011;11585;51.450;-0.240;2023-08-08T01:44:21;6.78;;;1.63;;
22837;SDS011;11585;51.450;-0.240;2023-08-08T01:50:11;6.88;;;1.70;;
22837;SDS011;11585;51.450;-0.240;2023-08-08T01:52:37;2.95;;;1.60;;
22837;SDS011;11585;51.450;-0.240;2023-08-08T01:57:32;5.85;;;2.05;;
22837;SDS011;11585;51.450;-0.240;2023-08-08T01:59:57;5.40;;;1.63;;
22837;SDS011;11585;51.450;-0.240;2023-08-08T02:02:23;2.55;;;1.50;;
22837;SDS011;11585;51.450;-0.240;2023-08-08T02:04:49;4.28;;;1.75;;
22837;SDS011;11585;51.450;-0.240;2023-08-08T02:10:01;4.78;;;1.92;;
22837;SDS011;11585;51.450;-0.240;2023-08-08T02:12:27;7.95;;;1.90;;
22837;SDS011;11585;51.450;-0.240;2023-08-08T02:14:55;4.53;;;1.90;;
22837;SDS011;11585;51.450;-0.240;2023-08-08T02:17:24;7.70;;;1.90;;
22837;SDS011;11585;51.450;-0.240;2023-08-08T02:19:51;2.80;;;1.52;;
22837;SDS011;11585;51.450;-0.240;2023-08-08T02:22:17;6.10;;;1.80;;
22837;SDS011;11585;51.450;-0.240;2023-08-08T02:24:42;7.40;;;1.98;;
22837;SDS011;11585;51.450;-0.240;2023-08-08T02:30:30;4.63;;;1.67;;
22837;SDS011;11585;51.450;-0.240;2023-08-08T02:35:43;3.53;;;1.90;;
22837;SDS011;11585;51.450;-0.240;2023-08-08T02:38:09;6.18;;;2.00;;
22837;SDS011;11585;51.450;-0.240;2023-08-08T02:40:34;12.95;;;2.20;;
22837;SDS011;11585;51.450;-0.240;2023-08-08T02:43:00;8.85;;;1.80;;
22837;SDS011;11585;51.450;-0.240;2023-08-08T02:47:55;3.53;;;1.80;;
22837;SDS011;11585;51.450;-0.240;2023-08-08T02:50:21;2.90;;;2.00;;
22837;SDS011;11585;51.450;-0.240;2023-08-08T02:52:46;4.80;;;1.92;;
22837;SDS011;11585;51.450;-0.240;2023-08-08T02:58:34;4.03;;;1.70;;
22837;SDS011;11585;51.450;-0.240;2023-08-08T03:00:59;9.45;;;2.03;;
22837;SDS011;11585;51.450;-0.240;2023-08-08T03:03:25;5.13;;;1.77;;
22837;SDS011;11585;51.450;-0.240;2023-08-08T03:08:58;8.15;;;2.00;;
22837;SDS011;11585;51.450;-0.240;2023-08-08T03:11:24;7.32;;;2.05;;
22837;SDS011;11585;51.450;-0.240;2023-08-08T03:13:52;6.35;;;1.80;;
22837;SDS011;11585;51.450;-0.240;2023-08-08T03:19:02;5.60;;;1.83;;
22837;SDS011;11585;51.450;-0.240;2023-08-08T03:21:28;5.82;;;2.10;;
22837;SDS011;11585;51.450;-0.240;2023-08-08T03:23:54;10.80;;;1.80;;
22837;SDS011;11585;51.450;-0.240;2023-08-08T03:29:42;4.65;;;1.90;;
22837;SDS011;11585;51.450;-0.240;2023-08-08T03:32:08;4.90;;;1.73;;
22837;SDS011;11585;51.450;-0.240;2023-08-08T03:34:33;4.90;;;1.58;;
22837;SDS011;11585;51.450;-0.240;2023-08-08T03:39:28;4.03;;;1.70;;
22837;SDS011;11585;51.450;-0.240;2023-08-08T03:41:54;5.95;;;1.90;;
22837;SDS011;11585;51.450;-0.240;2023-08-08T03:44:19;5.28;;;1.90;;
22837;SDS011;11585;51.450;-0.240;2023-08-08T03:50:07;5.55;;;1.75;;
22837;SDS011;11585;51.450;-0.240;2023-08-08T03:52:34;4.03;;;1.65;;
22837;SDS011;11585;51.450;-0.240;2023-08-08T03:57:48;4.07;;;1.88;;
22837;SDS011;11585;51.450;-0.240;2023-08-08T04:00:14;7.18;;;2.10;;
22837;SDS011;11585;51.450;-0.240;2023-08-08T04:02:40;5.95;;;3.08;;
22837;SDS011;11585;51.450;-0.240;2023-08-08T04:08:28;6.13;;;2.10;;
22837;SDS011;11585;51.450;-0.240;2023-08-08T04:13:41;3.45;;;1.98;;
22837;SDS011;11585;51.450;-0.240;2023-08-08T04:18:36;9.23;;;2.08;;
22837;SDS011;11585;51.450;-0.240;2023-08-08T04:21:01;5.63;;;1.90;;
22837;SDS011;11585;51.450;-0.240;2023-08-08T04:23:27;6.80;;;2.35;;
22837;SDS011;11585;51.450;-0.240;2023-08-08T04:28:51;4.75;;;1.90;;
22837;SDS011;11585;51.450;-0.240;2023-08-08T04:31:17;4.88;;;2.10;;
22837;SDS011;11585;51.450;-0.240;2023-08-08T04:33:43;5.40;;;1.73;;
22837;SDS011;11585;51.450;-0.240;2023-08-08T04:36:09;3.47;;;2.28;;
22837;SDS011;11585;51.450;-0.240;2023-08-08T04:38:35;4.20;;;2.00;;
22837;SDS011;11585;51.450;-0.240;2023-08-08T04:41:01;4.38;;;1.77;;
22837;SDS011;11585;51.450;-0.240;2023-08-08T04:43:29;3.67;;;1.70;;
22837;SDS011;11585;51.450;-0.240;2023-08-08T04:56:02;6.05;;;1.85;;
22837;SDS011;11585;51.450;-0.240;2023-08-08T04:58:28;8.05;;;2.08;;
22837;SDS011;11585;51.450;-0.240;2023-08-08T05:00:54;5.10;;;2.00;;
22837;SDS011;11585;51.450;-0.240;2023-08-08T05:03:20;4.80;;;2.00;;
22837;SDS011;11585;51.450;-0.240;2023-08-08T05:09:08;7.18;;;2.53;;
22837;SDS011;11585;51.450;-0.240;2023-08-08T05:11:36;7.20;;;2.35;;
22837;SDS011;11585;51.450;-0.240;2023-08-08T05:14:02;5.93;;;2.20;;
22837;SDS011;11585;51.450;-0.240;2023-08-08T05:19:31;4.78;;;2.15;;
22837;SDS011;11585;51.450;-0.240;2023-08-08T05:21:57;7.68;;;2.00;;
22837;SDS011;11585;51.450;-0.240;2023-08-08T05:24:23;4.82;;;2.08;;
22837;SDS011;11585;51.450;-0.240;2023-08-08T05:26:48;4.22;;;2.10;;
22837;SDS011;11585;51.450;-0.240;2023-08-08T05:29:14;5.75;;;2.35;;
22837;SDS011;11585;51.450;-0.240;2023-08-08T05:31:40;7.40;;;2.30;;
22837;SDS011;11585;51.450;-0.240;2023-08-08T05:34:05;5.18;;;1.90;;
22837;SDS011;11585;51.450;-0.240;2023-08-08T05:39:53;4.55;;;2.38;;
22837;SDS011;11585;51.450;-0.240;2023-08-08T05:42:19;8.07;;;1.77;;
22837;SDS011;11585;51.450;-0.240;2023-08-08T05:44:45;6.43;;;2.47;;
22837;SDS011;11585;51.450;-0.240;2023-08-08T05:49:39;4.85;;;2.08;;
22837;SDS011;11585;51.450;-0.240;2023-08-08T05:52:08;7.25;;;2.55;;
22837;SDS011;11585;51.450;-0.240;2023-08-08T05:54:34;6.65;;;2.55;;
22837;SDS011;11585;51.450;-0.240;2023-08-08T05:59:46;4.20;;;2.22;;
22837;SDS011;11585;51.450;-0.240;2023-08-08T06:02:11;6.53;;;3.05;;
22837;SDS011;11585;51.450;-0.240;2023-08-08T06:04:37;10.90;;;3.53;;
22837;SDS011;11585;51.450;-0.240;2023-08-08T06:10:07;9.05;;;2.65;;
22837;SDS011;11585;51.450;-0.240;2023-08-08T06:12:33;7.72;;;2.47;;
22837;SDS011;11585;51.450;-0.240;2023-08-08T06:14:59;8.52;;;2.78;;
22837;SDS011;11585;51.450;-0.240;2023-08-08T06:17:24;6.15;;;2.65;;
22837;SDS011;11585;51.450;-0.240;2023-08-08T06:19:50;5.45;;;2.80;;
22837;SDS011;11585;51.450;-0.240;2023-08-08T06:22:16;4.43;;;2.67;;
22837;SDS011;11585;51.450;-0.240;2023-08-08T06:24:41;4.93;;;2.20;;
22837;SDS011;11585;51.450;-0.240;2023-08-08T06:29:53;9.73;;;2.35;;
22837;SDS011;11585;51.450;-0.240;2023-08-08T06:32:20;5.75;;;2.40;;
22837;SDS011;11585;51.450;-0.240;2023-08-08T06:34:46;9.05;;;2.25;;
22837;SDS011;11585;51.450;-0.240;2023-08-08T06:37:14;4.82;;;2.35;;
22837;SDS011;11585;51.450;-0.240;2023-08-08T06:39:40;9.70;;;2.38;;
22837;SDS011;11585;51.450;-0.240;2023-08-08T06:42:06;11.68;;;2.42;;
22837;SDS011;11585;51.450;-0.240;2023-08-08T06:44:33;12.65;;;2.70;;
22837;SDS011;11585;51.450;-0.240;2023-08-08T06:47:07;5.07;;;2.15;;
22837;SDS011;11585;51.450;-0.240;2023-08-08T06:49:33;11.65;;;2.33;;
22837;SDS011;11585;51.450;-0.240;2023-08-08T06:51:58;4.95;;;2.05;;
22837;SDS011;11585;51.450;-0.240;2023-08-08T06:54:24;7.15;;;1.83;;
22837;SDS011;11585;51.450;-0.240;2023-08-08T06:59:57;5.72;;;1.85;;
22837;SDS011;11585;51.450;-0.240;2023-08-08T07:02:23;5.40;;;1.92;;
22837;SDS011;11585;51.450;-0.240;2023-08-08T07:04:48;4.50;;;1.90;;
22837;SDS011;11585;51.450;-0.240;2023-08-08T07:10:01;5.13;;;1.77;;
22837;SDS011;11585;51.450;-0.240;2023-08-08T07:12:34;4.10;;;1.90;;
22837;SDS011;11585;51.450;-0.240;2023-08-08T07:15:00;5.18;;;1.95;;
22837;SDS011;11585;51.450;-0.240;2023-08-08T07:17:25;5.90;;;2.28;;
22837;SDS011;11585;51.450;-0.240;2023-08-08T07:19:51;4.38;;;1.90;;
22837;SDS011;11585;51.450;-0.240;2023-08-08T07:22:16;7.07;;;2.10;;
22837;SDS011;11585;51.450;-0.240;2023-08-08T07:24:42;7.25;;;1.92;;
22837;SDS011;11585;51.450;-0.240;2023-08-08T07:27:09;6.00;;;1.85;;
22837;SDS011;11585;51.450;-0.240;2023-08-08T07:29:35;16.60;;;2.35;;
22837;SDS011;11585;51.450;-0.240;2023-08-08T07:32:03;5.35;;;2.22;;
22837;SDS011;11585;51.450;-0.240;2023-08-08T07:34:29;4.68;;;1.60;;
22837;SDS011;11585;51.450;-0.240;2023-08-08T07:39:44;2.88;;;1.60;;
22837;SDS011;11585;51.450;-0.240;2023-08-08T07:42:10;5.60;;;2.10;;
22837;SDS011;11585;51.450;-0.240;2023-08-08T07:44:35;5.88;;;2.47;;
22837;SDS011;11585;51.450;-0.240;2023-08-08T07:47:04;2.80;;;1.50;;
22837;SDS011;11585;51.450;-0.240;2023-08-08T07:49:30;6.38;;;1.92;;
22837;SDS011;11585;51.450;-0.240;2023-08-08T07:52:05;5.60;;;1.77;;
22837;SDS011;11585;51.450;-0.240;2023-08-08T07:58:01;7.25;;;2.42;;
22837;SDS011;11585;51.450;-0.240;2023-08-08T08:00:26;5.25;;;2.50;;
22837;SDS011;11585;51.450;-0.240;2023-08-08T08:02:52;4.68;;;2.05;;
22837;SDS011;11585;51.450;-0.240;2023-08-08T08:05:20;11.55;;;2.05;;
22837;SDS011;11585;51.450;-0.240;2023-08-08T08:07:46;5.97;;;2.50;;
22837;SDS011;11585;51.450;-0.240;2023-08-08T08:10:12;5.90;;;2.08;;
22837;SDS011;11585;51.450;-0.240;2023-08-08T08:12:38;5.43;;;2.30;;
22837;SDS011;11585;51.450;-0.240;2023-08-08T08:15:05;3.63;;;2.20;;
22837;SDS011;11585;51.450;-0.240;2023-08-08T08:17:31;6.75;;;2.50;;
22837;SDS011;11585;51.450;-0.240;2023-08-08T08:19:57;2.90;;;2.08;;
22837;SDS011;11585;51.450;-0.240;2023-08-08T08:22:23;4.32;;;2.00;;
22837;SDS011;11585;51.450;-0.240;2023-08-08T08:24:49;3.63;;;2.30;;
22837;SDS011;11585;51.450;-0.240;2023-08-08T08:27:17;6.05;;;2.70;;
22837;SDS011;11585;51.450;-0.240;2023-08-08T08:29:43;6.75;;;2.45;;
22837;SDS011;11585;51.450;-0.240;2023-08-08T08:32:09;6.25;;;2.40;;
22837;SDS011;11585;51.450;-0.240;2023-08-08T08:34:34;10.68;;;3.75;;
22837;SDS011;11585;51.450;-0.240;2023-08-08T08:39:50;5.45;;;2.50;;
22837;SDS011;11585;51.450;-0.240;2023-08-08T08:42:15;4.75;;;2.10;;
22837;SDS011;11585;51.450;-0.240;2023-08-08T08:44:42;6.93;;;2.75;;
22837;SDS011;11585;51.450;-0.240;2023-08-08T08:49:54;7.95;;;2.67;;
22837;SDS011;11585;51.450;-0.240;2023-08-08T08:52:21;6.38;;;2.38;;
22837;SDS011;11585;51.450;-0.240;2023-08-08T08:54:47;5.45;;;2.50;;
22837;SDS011;11585;51.450;-0.240;2023-08-08T09:00:35;9.20;;;2.60;;
22837;SDS011;11585;51.450;-0.240;2023-08-08T09:03:02;3.25;;;2.35;;
22837;SDS011;11585;51.450;-0.240;2023-08-08T09:05:29;7.45;;;2.50;;
22837;SDS011;11585;51.450;-0.240;2023-08-08T09:07:55;5.80;;;2.30;;
22837;SDS011;11585;51.450;-0.240;2023-08-08T09:10:23;10.05;;;3.13;;
22837;SDS011;11585;51.450;-0.240;2023-08-08T09:12:50;3.47;;;2.53;;
22837;SDS011;11585;51.450;-0.240;2023-08-08T09:15:19;8.63;;;3.60;;
22837;SDS011;11585;51.450;-0.240;2023-08-08T09:17:44;11.55;;;4.10;;
22837;SDS011;11585;51.450;-0.240;2023-08-08T09:20:12;9.40;;;2.90;;
22837;SDS011;11585;51.450;-0.240;2023-08-08T09:22:38;7.15;;;2.35;;
22837;SDS011;11585;51.450;-0.240;2023-08-08T09:28:11;6.05;;;2.92;;
22837;SDS011;11585;51.450;-0.240;2023-08-08T09:30:36;5.40;;;2.55;;
22837;SDS011;11585;51.450;-0.240;2023-08-08T09:33:03;3.42;;;2.22;;
22837;SDS011;11585;51.450;-0.240;2023-08-08T09:35:28;8.90;;;2.80;;
22837;SDS011;11585;51.450;-0.240;2023-08-08T09:37:55;4.82;;;2.47;;
22837;SDS011;11585;51.450;-0.240;2023-08-08T09:40:21;5.95;;;2.50;;
22837;SDS011;11585;51.450;-0.240;2023-08-08T09:42:50;4.50;;;2.30;;
22837;SDS011;11585;51.450;-0.240;2023-08-08T09:48:07;5.50;;;1.85;;
22837;SDS011;11585;51.450;-0.240;2023-08-08T09:50:33;6.45;;;2.30;;
22837;SDS011;11585;51.450;-0.240;2023-08-08T09:53:01;4.55;;;2.05;;
22837;SDS011;11585;51.450;-0.240;2023-08-08T09:58:36;3.40;;;1.70;;
22837;SDS011;11585;51.450;-0.240;2023-08-08T10:01:01;3.53;;;2.08;;
22837;SDS011;11585;51.450;-0.240;2023-08-08T10:03:29;4.93;;;1.83;;
22837;SDS011;11585;51.450;-0.240;2023-08-08T10:08:28;3.13;;;2.08;;
22837;SDS011;11585;51.450;-0.240;2023-08-08T10:10:55;2.90;;;2.20;;
22837;SDS011;11585;51.450;-0.240;2023-08-08T10:13:24;5.90;;;2.40;;
22837;SDS011;11585;51.450;-0.240;2023-08-08T10:15:52;5.23;;;2.33;;
22837;SDS011;11585;51.450;-0.240;2023-08-08T10:18:18;9.07;;;2.80;;
22837;SDS011;11585;51.450;-0.240;2023-08-08T10:20:47;4.88;;;2.50;;
22837;SDS011;11585;51.450;-0.240;2023-08-08T10:23:18;7.22;;;2.92;;
22837;SDS011;11585;51.450;-0.240;2023-08-08T10:25:48;6.85;;;3.00;;
22837;SDS011;11585;51.450;-0.240;2023-08-08T10:28:16;5.57;;;3.10;;
22837;SDS011;11585;51.450;-0.240;2023-08-08T10:30:47;5.72;;;2.88;;
22837;SDS011;11585;51.450;-0.240;2023-08-08T10:33:17;6.00;;;3.50;;
22837;SDS011;11585;51.450;-0.240;2023-08-08T10:38:48;6.45;;;3.15;;
22837;SDS011;11585;51.450;-0.240;2023-08-08T10:41:19;6.75;;;3.63;;
22837;SDS011;11585;51.450;-0.240;2023-08-08T10:44:08;7.70;;;3.80;;
22837;SDS011;11585;51.450;-0.240;2023-08-08T10:49:05;7.72;;;3.88;;
22837;SDS011;11585;51.450;-0.240;2023-08-08T10:51:37;7.50;;;3.97;;
22837;SDS011;11585;51.450;-0.240;2023-08-08T10:54:18;7.53;;;3.80;;
22837;SDS011;11585;51.450;-0.240;2023-08-08T10:56:52;9.25;;;3.78;;
22837;SDS011;11585;51.450;-0.240;2023-08-08T10:59:22;8.27;;;4.38;;
22837;SDS011;11585;51.450;-0.240;2023-08-08T11:01:56;8.35;;;4.25;;
22837;SDS011;11585;51.450;-0.240;2023-08-08T11:04:22;7.38;;;4.15;;
22837;SDS011;11585;51.450;-0.240;2023-08-08T11:09:54;11.48;;;4.20;;
22837;SDS011;11585;51.450;-0.240;2023-08-08T11:12:19;7.30;;;4.22;;
22837;SDS011;11585;51.450;-0.240;2023-08-08T11:14:45;11.52;;;4.90;;
22837;SDS011;11585;51.450;-0.240;2023-08-08T11:17:11;8.18;;;4.18;;
22837;SDS011;11585;51.450;-0.240;2023-08-08T11:19:40;11.38;;;4.30;;
22837;SDS011;11585;51.450;-0.240;2023-08-08T11:22:10;6.65;;;4.05;;
22837;SDS011;11585;51.450;-0.240;2023-08-08T11:24:36;8.00;;;4.28;;
22837;SDS011;11585;51.450;-0.240;2023-08-08T11:29:34;10.75;;;4.30;;
22837;SDS011;11585;51.450;-0.240;2023-08-08T11:32:00;10.57;;;4.07;;
22837;SDS011;11585;51.450;-0.240;2023-08-08T11:34:30;8.85;;;4.03;;
22837;SDS011;11585;51.450;-0.240;2023-08-08T11:39:43;8.48;;;4.63;;
22837;SDS011;11585;51.450;-0.240;2023-08-08T11:42:10;12.43;;;4.18;;
22837;SDS011;11585;51.450;-0.240;2023-08-08T11:44:36;9.50;;;3.28;;
22837;SDS011;11585;51.450;-0.240;2023-08-08T11:50:24;9.55;;;3.28;;
22837;SDS011;11585;51.450;-0.240;2023-08-08T11:56:14;6.97;;;3.25;;
22837;SDS011;11585;51.450;-0.240;2023-08-08T11:58:40;8.18;;;3.40;;
22837;SDS011;11585;51.450;-0.240;2023-08-08T12:01:05;8.30;;;3.47;;
22837;SDS011;11585;51.450;-0.240;2023-08-08T12:03:31;6.32;;;3.10;;
22837;SDS011;11585;51.450;-0.240;2023-08-08T12:08:43;6.90;;;3.47;;
22837;SDS011;11585;51.450;-0.240;2023-08-08T12:11:10;9.50;;;3.80;;
22837;SDS011;11585;51.450;-0.240;2023-08-08T12:13:37;8.80;;;3.72;;
22837;SDS011;11585;51.450;-0.240;2023-08-08T12:16:05;9.00;;;4.30;;
22837;SDS011;11585;51.450;-0.240;2023-08-08T12:18:34;52.78;;;14.98;;
22837;SDS011;11585;51.450;-0.240;2023-08-08T12:21:02;9.32;;;4.90;;
22837;SDS011;11585;51.450;-0.240;2023-08-08T12:23:28;9.38;;;4.80;;
22837;SDS011;11585;51.450;-0.240;2023-08-08T12:25:53;42.75;;;16.38;;
22837;SDS011;11585;51.450;-0.240;2023-08-08T12:28:19;10.65;;;5.38;;
22837;SDS011;11585;51.450;-0.240;2023-08-08T12:30:45;16.98;;;8.13;;
22837;SDS011;11585;51.450;-0.240;2023-08-08T12:33:11;10.73;;;5.32;;
22837;SDS011;11585;51.450;-0.240;2023-08-08T12:35:36;12.15;;;7.00;;
22837;SDS011;11585;51.450;-0.240;2023-08-08T12:38:02;14.68;;;8.35;;
22837;SDS011;11585;51.450;-0.240;2023-08-08T12:40:28;9.60;;;4.78;;
22837;SDS011;11585;51.450;-0.240;2023-08-08T12:42:54;7.88;;;4.88;;
22837;SDS011;11585;51.450;-0.240;2023-08-08T12:45:20;7.22;;;4.93;;
22837;SDS011;11585;51.450;-0.240;2023-08-08T12:47:45;12.88;;;5.97;;
22837;SDS011;11585;51.450;-0.240;2023-08-08T12:50:11;7.25;;;3.78;;
22837;SDS011;11585;51.450;-0.240;2023-08-08T12:52:37;5.55;;;3.72;;
22837;SDS011;11585;51.450;-0.240;2023-08-08T12:55:04;9.05;;;3.72;;
22837;SDS011;11585;51.450;-0.240;2023-08-08T12:57:34;6.07;;;3.20;;
22837;SDS011;11585;51.450;-0.240;2023-08-08T13:00:02;11.52;;;5.30;;
22837;SDS011;11585;51.450;-0.240;2023-08-08T13:02:28;5.82;;;4.05;;
22837;SDS011;11585;51.450;-0.240;2023-08-08T13:04:53;10.23;;;5.57;;
22837;SDS011;11585;51.450;-0.240;2023-08-08T13:07:19;13.73;;;6.18;;
22837;SDS011;11585;51.450;-0.240;2023-08-08T13:09:45;10.07;;;6.53;;
22837;SDS011;11585;51.450;-0.240;2023-08-08T13:12:11;7.22;;;4.57;;
22837;SDS011;11585;51.450;-0.240;2023-08-08T13:14:47;21.02;;;7.38;;
22837;SDS011;11585;51.450;-0.240;2023-08-08T13:17:13;11.10;;;4.47;;
22837;SDS011;11585;51.450;-0.240;2023-08-08T13:19:39;8.38;;;4.15;;
22837;SDS011;11585;51.450;-0.240;2023-08-08T13:22:05;5.85;;;3.10;;
22837;SDS011;11585;51.450;-0.240;2023-08-08T13:24:30;7.18;;;3.08;;
22837;SDS011;11585;51.450;-0.240;2023-08-08T13:27:04;7.93;;;3.90;;
22837;SDS011;11585;51.450;-0.240;2023-08-08T13:29:30;4.95;;;3.10;;
22837;SDS011;11585;51.450;-0.240;2023-08-08T13:31:56;7.50;;;3.67;;
22837;SDS011;11585;51.450;-0.240;2023-08-08T13:34:22;7.95;;;3.63;;
22837;SDS011;11585;51.450;-0.240;2023-08-08T13:36:48;6.63;;;3.80;;
22837;SDS011;11585;51.450;-0.240;2023-08-08T13:39:14;9.77;;;4.57;;
22837;SDS011;11585;51.450;-0.240;2023-08-08T13:41:39;9.93;;;4.10;;
22837;SDS011;11585;51.450;-0.240;2023-08-08T13:44:08;7.25;;;4.07;;
22837;SDS011;11585;51.450;-0.240;2023-08-08T13:46:34;12.82;;;5.22;;
22837;SDS011;11585;51.450;-0.240;2023-08-08T13:49:00;7.63;;;4.22;;
22837;SDS011;11585;51.450;-0.240;2023-08-08T13:51:26;11.07;;;4.80;;
22837;SDS011;11585;51.450;-0.240;2023-08-08T13:53:54;11.52;;;5.43;;
22837;SDS011;11585;51.450;-0.240;2023-08-08T13:56:20;10.73;;;4.82;;
22837;SDS011;11585;51.450;-0.240;2023-08-08T13:58:45;10.90;;;5.13;;
22837;SDS011;11585;51.450;-0.240;2023-08-08T14:01:19;11.77;;;5.38;;
22837;SDS011;11585;51.450;-0.240;2023-08-08T14:03:47;11.82;;;5.30;;
22837;SDS011;11585;51.450;-0.240;2023-08-08T14:06:16;15.13;;;6.28;;
22837;SDS011;11585;51.450;-0.240;2023-08-08T14:08:42;10.40;;;5.93;;
22837;SDS011;11585;51.450;-0.240;2023-08-08T14:11:08;13.95;;;5.85;;
22837;SDS011;11585;51.450;-0.240;2023-08-08T14:13:36;10.20;;;6.15;;
22837;SDS011;11585;51.450;-0.240;2023-08-08T14:16:03;11.18;;;6.50;;
22837;SDS011;11585;51.450;-0.240;2023-08-08T14:18:29;19.27;;;7.32;;
22837;SDS011;11585;51.450;-0.240;2023-08-08T14:20:54;14.05;;;6.70;;
22837;SDS011;11585;51.450;-0.240;2023-08-08T14:23:23;10.48;;;6.78;;
22837;SDS011;11585;51.450;-0.240;2023-08-08T14:29:10;12.82;;;7.05;;
22837;SDS011;11585;51.450;-0.240;2023-08-08T14:31:42;17.25;;;7.43;;
22837;SDS011;11585;51.450;-0.240;2023-08-08T14:34:08;13.38;;;7.05;;
22837;SDS011;11585;51.450;-0.240;2023-08-08T14:39:56;15.65;;;7.32;;
22837;SDS011;11585;51.450;-0.240;2023-08-08T14:42:22;12.73;;;7.40;;
22837;SDS011;11585;51.450;-0.240;2023-08-08T14:44:47;18.67;;;8.07;;
22837;SDS011;11585;51.450;-0.240;2023-08-08T14:47:14;15.23;;;6.90;;
22837;SDS011;11585;51.450;-0.240;2023-08-08T14:49:40;11.85;;;7.82;;
22837;SDS011;11585;51.450;-0.240;2023-08-08T14:52:06;12.95;;;7.28;;
22837;SDS011;11585;51.450;-0.240;2023-08-08T14:54:34;17.40;;;7.20;;
22837;SDS011;11585;51.450;-0.240;2023-08-08T14:57:00;17.33;;;7.50;;
22837;SDS011;11585;51.450;-0.240;2023-08-08T14:59:27;11.77;;;7.10;;
22837;SDS011;11585;51.450;-0.240;2023-08-08T15:01:53;12.98;;;7.60;;
22837;SDS011;11585;51.450;-0.240;2023-08-08T15:04:19;18.55;;;7.75;;
22837;SDS011;11585;51.450;-0.240;2023-08-08T15:09:35;15.68;;;6.88;;
22837;SDS011;11585;51.450;-0.240;2023-08-08T15:12:02;13.77;;;7.07;;
22837;SDS011;11585;51.450;-0.240;2023-08-08T15:14:31;11.82;;;7.47;;
22837;SDS011;11585;51.450;-0.240;2023-08-08T15:19:46;14.30;;;7.90;;
22837;SDS011;11585;51.450;-0.240;2023-08-08T15:24:44;21.65;;;11.70;;
22837;SDS011;11585;51.450;-0.240;2023-08-08T15:30:13;15.25;;;7.47;;
22837;SDS011;11585;51.450;-0.240;2023-08-08T15:32:39;14.02;;;7.60;;
22837;SDS011;11585;51.450;-0.240;2023-08-08T15:35:05;15.05;;;7.90;;
22837;SDS011;11585;51.450;-0.240;2023-08-08T15:37:33;13.70;;;8.02;;
22837;SDS011;11585;51.450;-0.240;2023-08-08T15:39:59;14.15;;;8.60;;
22837;SDS011;11585;51.450;-0.240;2023-08-08T15:42:25;18.88;;;9.05;;
22837;SDS011;11585;51.450;-0.240;2023-08-08T15:44:51;16.35;;;7.50;;
22837;SDS011;11585;51.450;-0.240;2023-08-08T15:50:05;20.10;;;8.88;;
22837;SDS011;11585;51.450;-0.240;2023-08-08T15:52:31;15.63;;;8.93;;
22837;SDS011;11585;51.450;-0.240;2023-08-08T15:55:00;15.98;;;8.20;;
22837;SDS011;11585;51.450;-0.240;2023-08-08T15:57:26;13.38;;;8.60;;
22837;SDS011;11585;51.450;-0.240;2023-08-08T15:59:51;15.15;;;7.78;;
22837;SDS011;11585;51.450;-0.240;2023-08-08T16:02:17;14.65;;;7.82;;
22837;SDS011;11585;51.450;-0.240;2023-08-08T16:04:43;14.93;;;8.80;;
22837;SDS011;11585;51.450;-0.240;2023-08-08T16:07:10;16.77;;;7.35;;
22837;SDS011;11585;51.450;-0.240;2023-08-08T16:09:36;11.93;;;7.22;;
22837;SDS011;11585;51.450;-0.240;2023-08-08T16:12:02;16.05;;;7.20;;
22837;SDS011;11585;51.450;-0.240;2023-08-08T16:14:28;12.85;;;6.95;;
22837;SDS011;11585;51.450;-0.240;2023-08-08T16:20:16;11.43;;;6.55;;
22837;SDS011;11585;51.450;-0.240;2023-08-08T16:22:42;15.77;;;6.80;;
22837;SDS011;11585;51.450;-0.240;2023-08-08T16:27:52;12.93;;;6.35;;
22837;SDS011;11585;51.450;-0.240;2023-08-08T16:30:18;9.38;;;5.60;;
22837;SDS011;11585;51.450;-0.240;2023-08-08T16:32:44;10.57;;;5.93;;
22837;SDS011;11585;51.450;-0.240;2023-08-08T16:38:13;7.43;;;4.68;;
22837;SDS011;11585;51.450;-0.240;2023-08-08T16:40:39;9.15;;;4.53;;
22837;SDS011;11585;51.450;-0.240;2023-08-08T16:43:05;12.95;;;4.55;;
22837;SDS011;11585;51.450;-0.240;2023-08-08T16:45:30;7.43;;;4.20;;
22837;SDS011;11585;51.450;-0.240;2023-08-08T16:47:56;6.97;;;3.88;;
22837;SDS011;11585;51.450;-0.240;2023-08-08T16:50:22;12.00;;;3.70;;
22837;SDS011;11585;51.450;-0.240;2023-08-08T16:52:48;7.10;;;4.05;;
22837;SDS011;11585;51.450;-0.240;2023-08-08T16:58:36;7.47;;;3.35;;
22837;SDS011;11585;51.450;-0.240;2023-08-08T17:03:47;7.45;;;3.13;;
22837;SDS011;11585;51.450;-0.240;2023-08-08T17:06:13;7.57;;;3.30;;
22837;SDS011;11585;51.450;-0.240;2023-08-08T17:08:39;6.45;;;3.42;;
22837;SDS011;11585;51.450;-0.240;2023-08-08T17:11:04;11.13;;;2.97;;
22837;SDS011;11585;51.450;-0.240;2023-08-08T17:13:31;6.35;;;3.17;;
22837;SDS011;11585;51.450;-0.240;2023-08-08T17:19:38;8.73;;;2.88;;
22837;SDS011;11585;51.450;-0.240;2023-08-08T17:22:52;5.70;;;2.92;;
22837;SDS011;11585;51.450;-0.240;2023-08-08T17:42:26;6.47;;;2.63;;
22837;SDS011;11585;51.450;-0.240;2023-08-08T17:55:52;7.68;;;2.97;;
22837;SDS011;11585;51.450;-0.240;2023-08-08T17:59:08;7.03;;;3.13;;
22837;SDS011;11585;51.450;-0.240;2023-08-08T18:02:28;5.72;;;3.25;;
22837;SDS011;11585;51.450;-0.240;2023-08-08T18:15:57;7.55;;;3.50;;
22837;SDS011;11585;51.450;-0.240;2023-08-08T18:25:58;7.18;;;3.42;;
22837;SDS011;11585;51.450;-0.240;2023-08-08T18:31:49;11.25;;;4.50;;
22837;SDS011;11585;51.450;-0.240;2023-08-08T18:41:11;10.27;;;3.80;;
22837;SDS011;11585;51.450;-0.240;2023-08-08T18:44:02;8.82;;;3.97;;
22837;SDS011;11585;51.450;-0.240;2023-08-08T19:00:56;8.60;;;4.05;;
22837;SDS011;11585;51.450;-0.240;2023-08-08T19:10:50;15.68;;;4.78;;
22837;SDS011;11585;51.450;-0.240;2023-08-08T19:17:03;10.32;;;4.90;;
22837;SDS011;11585;51.450;-0.240;2023-08-08T19:39:50;8.70;;;4.43;;
22837;SDS011;11585;51.450;-0.240;2023-08-08T19:42:26;20.50;;;5.15;;